createdAt,value
2022-07-29T00:00:41.988Z,11.62
2022-07-29T00:03:10.147Z,10.95
2022-07-29T00:05:41.785Z,11.71
2022-07-29T00:08:12.479Z,11.78
2022-07-29T00:10:40.988Z,11.84
2022-07-29T00:13:09.652Z,11.81
2022-07-29T00:15:38.106Z,11.75
2022-07-29T00:18:06.412Z,11.40
2022-07-29T00:20:34.464Z,11.54
2022-07-29T00:23:02.863Z,11.36
2022-07-29T00:25:30.992Z,11.40
2022-07-29T00:28:01.915Z,11.68
2022-07-29T00:30:30.267Z,11.58
2022-07-29T00:32:58.381Z,11.63
2022-07-29T00:35:45.132Z,11.57
2022-07-29T00:38:19.504Z,11.37
2022-07-29T00:40:48.944Z,11.21
2022-07-29T00:43:18.153Z,11.40
2022-07-29T00:45:46.269Z,11.41
2022-07-29T00:48:14.800Z,11.41
2022-07-29T00:50:44.654Z,11.38
2022-07-29T00:53:13.734Z,11.32
2022-07-29T00:55:42.423Z,11.37
2022-07-29T00:58:12.933Z,11.36
2022-07-29T01:00:42.116Z,11.36
2022-07-29T01:03:10.515Z,11.30
2022-07-29T01:05:48.038Z,11.21
2022-07-29T01:08:21.500Z,11.30
2022-07-29T01:10:50.469Z,10.95
2022-07-29T01:13:19.086Z,10.95
2022-07-29T01:15:59.629Z,11.20
2022-07-29T01:18:38.931Z,10.84
2022-07-29T01:21:31.689Z,11.08
2022-07-29T01:24:29.626Z,11.03
2022-07-29T01:27:53.598Z,11.03
2022-07-29T01:30:25.986Z,10.92
2022-07-29T01:33:04.488Z,10.75
2022-07-29T01:35:41.884Z,10.91
2022-07-29T01:38:26.304Z,10.88
2022-07-29T01:41:05.165Z,10.87
2022-07-29T01:43:45.478Z,10.79
2022-07-29T01:46:21.299Z,10.90
2022-07-29T01:48:56.514Z,10.81
2022-07-29T01:51:37.256Z,10.82
2022-07-29T01:54:31.732Z,10.78
2022-07-29T01:57:01.177Z,10.79
2022-07-29T01:59:31.531Z,10.52
2022-07-29T02:02:01.011Z,10.39
2022-07-29T02:04:31.066Z,10.59
2022-07-29T02:07:06.309Z,10.54
2022-07-29T02:09:37.591Z,10.60
2022-07-29T02:12:07.532Z,10.34
2022-07-29T02:14:43.783Z,10.66
2022-07-29T02:17:13.959Z,10.64
2022-07-29T02:19:45.083Z,10.37
2022-07-29T02:22:15.222Z,10.51
2022-07-29T02:24:45.388Z,10.61
2022-07-29T02:27:16.168Z,10.52
2022-07-29T02:29:47.900Z,10.54
2022-07-29T02:32:17.455Z,10.25
2022-07-29T02:34:47.448Z,10.44
2022-07-29T02:37:18.542Z,10.57
2022-07-29T02:39:49.157Z,10.66
2022-07-29T02:42:19.918Z,10.48
2022-07-29T02:44:47.931Z,10.69
2022-07-29T02:47:30.287Z,10.60
2022-07-29T02:50:23.802Z,10.42
2022-07-29T02:53:10.688Z,10.25
2022-07-29T02:55:52.819Z,10.37
2022-07-29T02:58:34.852Z,10.42
2022-07-29T03:01:21.004Z,10.11
2022-07-29T03:03:54.424Z,10.31
2022-07-29T03:06:37.656Z,10.41
2022-07-29T03:09:13.401Z,10.48
2022-07-29T03:11:50.191Z,10.46
2022-07-29T03:14:21.261Z,10.48
2022-07-29T03:16:51.176Z,10.49
2022-07-29T03:19:20.324Z,10.36
2022-07-29T03:21:48.973Z,10.64
2022-07-29T03:24:36.044Z,10.70
2022-07-29T03:27:06.659Z,10.80
2022-07-29T03:29:35.092Z,10.91
2022-07-29T03:32:08.067Z,10.68
2022-07-29T03:34:39.046Z,11.03
2022-07-29T03:37:08.165Z,11.07
2022-07-29T03:39:43.401Z,11.13
2022-07-29T03:42:16.413Z,11.21
2022-07-29T03:44:48.661Z,11.26
2022-07-29T03:47:23.378Z,11.36
2022-07-29T03:50:15.803Z,11.47
2022-07-29T03:52:45.248Z,11.49
2022-07-29T03:55:14.706Z,11.62
2022-07-29T03:57:46.000Z,11.79
2022-07-29T04:00:16.629Z,11.82
2022-07-29T04:02:50.196Z,11.98
2022-07-29T04:05:19.774Z,11.62
2022-07-29T04:07:51.005Z,12.22
2022-07-29T04:10:25.226Z,12.30
2022-07-29T04:13:01.359Z,12.42
2022-07-29T04:15:31.088Z,12.54
2022-07-29T04:18:00.757Z,12.44
2022-07-29T04:20:29.396Z,12.83
2022-07-29T04:22:57.731Z,13.02
2022-07-29T04:25:25.835Z,13.14
2022-07-29T04:28:03.369Z,13.45
2022-07-29T04:30:33.050Z,13.63
2022-07-29T04:33:03.394Z,13.70
2022-07-29T04:35:38.483Z,14.12
2022-07-29T04:38:07.767Z,14.19
2022-07-29T04:40:44.156Z,14.55
2022-07-29T04:43:14.276Z,15.02
2022-07-29T04:45:43.883Z,15.30
2022-07-29T04:48:12.107Z,15.61
2022-07-29T04:50:41.433Z,15.69
2022-07-29T04:53:09.860Z,16.16
2022-07-29T04:55:38.885Z,16.53
2022-07-29T04:58:08.620Z,16.93
2022-07-29T05:00:36.699Z,17.09
2022-07-29T05:03:05.615Z,17.10
2022-07-29T05:05:33.873Z,17.55
2022-07-29T05:08:02.101Z,17.81
2022-07-29T05:10:30.559Z,18.06
2022-07-29T05:12:58.884Z,18.15
2022-07-29T05:15:27.222Z,18.35
2022-07-29T05:17:55.407Z,18.54
2022-07-29T05:20:27.567Z,18.88
2022-07-29T05:22:58.148Z,18.76
2022-07-29T05:25:43.671Z,19.05
2022-07-29T05:28:13.546Z,19.13
2022-07-29T05:30:43.965Z,19.40
2022-07-29T05:33:35.247Z,19.52
2022-07-29T05:36:01.167Z,19.55
2022-07-29T05:38:29.698Z,19.97
2022-07-29T05:41:00.987Z,20.26
2022-07-29T05:43:29.826Z,20.07
2022-07-29T05:45:58.111Z,20.42
2022-07-29T05:48:26.539Z,20.58
2022-07-29T05:50:55.942Z,20.96
2022-07-29T05:53:24.326Z,21.03
2022-07-29T05:55:53.347Z,21.12
2022-07-29T05:58:21.720Z,20.70
2022-07-29T06:00:49.760Z,20.90
2022-07-29T06:03:17.832Z,20.76
2022-07-29T06:05:46.076Z,21.46
2022-07-29T06:08:13.988Z,21.54
2022-07-29T06:10:43.409Z,21.97
2022-07-29T06:13:11.589Z,22.05
2022-07-29T06:15:40.146Z,21.89
2022-07-29T06:18:10.500Z,21.81
2022-07-29T06:20:39.491Z,22.37
2022-07-29T06:23:07.683Z,22.33
2022-07-29T06:25:38.865Z,22.39
2022-07-29T06:28:07.188Z,22.16
2022-07-29T06:30:35.179Z,21.83
2022-07-29T06:33:04.147Z,21.76
2022-07-29T06:35:39.329Z,21.94
2022-07-29T06:38:29.989Z,22.27
2022-07-29T06:41:11.344Z,22.51
2022-07-29T06:43:50.178Z,22.75
2022-07-29T06:46:21.081Z,23.08
2022-07-29T06:48:50.717Z,22.64
2022-07-29T06:51:21.786Z,22.66
2022-07-29T06:53:59.376Z,22.93
2022-07-29T06:56:39.925Z,23.33
2022-07-29T06:59:10.937Z,23.75
2022-07-29T07:01:41.975Z,23.92
2022-07-29T07:04:10.571Z,24.15
2022-07-29T07:06:38.997Z,24.05
2022-07-29T07:09:07.346Z,23.74
2022-07-29T07:11:36.043Z,24.02
2022-07-29T07:14:04.705Z,24.54
2022-07-29T07:16:33.845Z,24.92
2022-07-29T07:19:02.640Z,24.43
2022-07-29T07:21:31.486Z,24.56
2022-07-29T07:24:01.045Z,24.25
2022-07-29T07:26:29.568Z,24.74
2022-07-29T07:28:57.943Z,24.52
2022-07-29T07:31:26.036Z,24.73
2022-07-29T07:33:54.719Z,24.87
2022-07-29T07:36:23.583Z,24.83
2022-07-29T07:38:51.786Z,24.75
2022-07-29T07:41:20.408Z,25.04
2022-07-29T07:43:48.693Z,25.15
2022-07-29T07:46:17.370Z,25.28
2022-07-29T07:48:45.532Z,24.86
2022-07-29T07:51:13.802Z,24.17
2022-07-29T07:53:42.360Z,24.70
2022-07-29T07:56:12.086Z,25.28
2022-07-29T07:58:41.059Z,25.65
2022-07-29T08:01:11.187Z,25.06
2022-07-29T08:03:40.065Z,25.10
2022-07-29T08:06:08.239Z,25.71
2022-07-29T08:08:36.574Z,26.16
2022-07-29T08:11:09.060Z,26.24
2022-07-29T08:13:39.226Z,26.58
2022-07-29T08:16:16.286Z,26.20
2022-07-29T08:18:47.139Z,25.69
2022-07-29T08:21:17.310Z,25.94
2022-07-29T08:24:15.994Z,26.21
2022-07-29T08:26:45.325Z,26.74
2022-07-29T08:29:18.338Z,27.02
2022-07-29T08:31:48.179Z,27.50
2022-07-29T08:34:16.236Z,27.17
2022-07-29T08:36:44.310Z,27.39
2022-07-29T08:39:18.548Z,27.60
2022-07-29T08:41:57.485Z,27.94
2022-07-29T08:44:30.477Z,28.35
2022-07-29T08:46:58.892Z,28.16
2022-07-29T08:49:27.233Z,27.38
2022-07-29T08:51:57.284Z,28.51
2022-07-29T08:54:26.015Z,28.45
2022-07-29T08:56:54.949Z,28.35
2022-07-29T08:59:28.173Z,28.16
2022-07-29T09:02:01.416Z,28.06
2022-07-29T09:04:35.394Z,27.90
2022-07-29T09:07:07.059Z,28.13
2022-07-29T09:09:35.285Z,28.76
2022-07-29T09:12:05.205Z,27.97
2022-07-29T09:14:33.234Z,27.73
2022-07-29T09:17:02.128Z,28.82
2022-07-29T09:19:37.225Z,29.16
2022-07-29T09:22:08.058Z,29.48
2022-07-29T09:24:46.361Z,29.89
2022-07-29T09:27:27.791Z,28.83
2022-07-29T09:30:15.459Z,28.74
2022-07-29T09:32:59.775Z,28.91
2022-07-29T09:35:28.731Z,28.62
2022-07-29T09:37:57.613Z,28.31
2022-07-29T09:40:29.173Z,28.67
2022-07-29T09:42:58.433Z,29.24
2022-07-29T09:45:33.308Z,29.35
2022-07-29T09:48:20.845Z,28.39
2022-07-29T09:50:52.006Z,28.21
2022-07-29T09:53:39.091Z,28.68
2022-07-29T09:56:07.472Z,29.08
2022-07-29T09:58:36.461Z,29.20
2022-07-29T10:01:05.360Z,29.58
2022-07-29T10:03:33.519Z,28.99
2022-07-29T10:06:10.768Z,28.67
2022-07-29T10:08:39.339Z,28.54
2022-07-29T10:11:20.055Z,28.98
2022-07-29T10:13:50.125Z,29.71
2022-07-29T10:16:19.118Z,29.93
2022-07-29T10:18:48.290Z,30.23
2022-07-29T10:21:34.917Z,30.46
2022-07-29T10:24:07.481Z,30.81
2022-07-29T10:26:45.823Z,30.74
2022-07-29T10:29:14.078Z,29.97
2022-07-29T10:31:54.268Z,30.88
2022-07-29T10:35:13.676Z,30.96
2022-07-29T10:38:24.797Z,30.74
2022-07-29T10:41:31.988Z,31.04
2022-07-29T10:44:17.096Z,30.55
2022-07-29T10:46:48.036Z,31.81
2022-07-29T10:49:25.218Z,31.82
2022-07-29T10:51:59.895Z,30.94
2022-07-29T10:54:38.259Z,31.27
2022-07-29T10:57:15.796Z,31.56
2022-07-29T10:59:46.607Z,31.21
2022-07-29T11:02:41.763Z,32.02
2022-07-29T11:05:12.983Z,31.77
2022-07-29T11:08:21.110Z,31.60
2022-07-29T11:11:22.145Z,31.94
2022-07-29T11:13:56.063Z,32.46
2022-07-29T11:16:25.660Z,32.86
2022-07-29T11:19:13.207Z,32.20
2022-07-29T11:21:53.448Z,32.40
2022-07-29T11:24:30.378Z,32.60
2022-07-29T11:27:18.139Z,32.82
2022-07-29T11:30:08.045Z,31.84
2022-07-29T11:32:48.954Z,31.99
2022-07-29T11:35:36.928Z,31.74
2022-07-29T11:38:28.812Z,32.14
2022-07-29T11:41:19.042Z,33.09
2022-07-29T11:43:58.550Z,33.50
2022-07-29T11:46:50.864Z,31.47
2022-07-29T11:52:12.312Z,32.17
2022-07-29T11:54:58.126Z,31.43
2022-07-29T11:57:37.259Z,32.03
2022-07-29T12:00:12.620Z,32.14
2022-07-29T12:02:48.600Z,33.74
2022-07-29T12:05:35.990Z,33.36
2022-07-29T12:08:20.994Z,33.69
2022-07-29T12:10:53.159Z,33.96
2022-07-29T12:13:22.944Z,34.12
2022-07-29T12:16:06.950Z,33.81
2022-07-29T12:18:35.409Z,31.94
2022-07-29T12:21:05.144Z,31.50
2022-07-29T12:23:34.965Z,30.79
2022-07-29T12:26:11.003Z,31.10
2022-07-29T12:28:50.335Z,32.28
2022-07-29T12:31:42.098Z,32.62
2022-07-29T12:34:07.225Z,33.37
2022-07-29T12:36:35.501Z,32.28
2022-07-29T12:39:05.343Z,32.16
2022-07-29T12:41:33.482Z,32.08
2022-07-29T12:44:01.597Z,32.21
2022-07-29T12:46:29.654Z,32.82
2022-07-29T12:48:58.458Z,32.80
2022-07-29T12:51:39.507Z,32.36
2022-07-29T12:54:16.892Z,32.47
2022-07-29T12:56:46.255Z,32.39
2022-07-29T12:59:20.706Z,31.48
2022-07-29T13:01:52.239Z,31.92
2022-07-29T13:04:34.528Z,32.04
2022-07-29T13:08:29.490Z,31.77
2022-07-29T13:10:11.095Z,32.12
2022-07-29T13:12:40.676Z,32.26
2022-07-29T13:15:17.113Z,31.81
2022-07-29T13:17:45.311Z,31.87
2022-07-29T13:20:15.984Z,32.63
2022-07-29T13:22:49.905Z,32.86
2022-07-29T13:25:34.475Z,32.65
2022-07-29T13:28:03.453Z,32.37
2022-07-29T13:30:31.503Z,31.78
2022-07-29T13:32:59.554Z,31.77
2022-07-29T13:35:30.887Z,31.71
2022-07-29T13:37:59.197Z,31.85
2022-07-29T13:40:27.312Z,32.38
2022-07-29T13:42:55.470Z,32.74
2022-07-29T13:45:24.077Z,32.56
2022-07-29T13:47:52.109Z,32.43
2022-07-29T13:50:20.230Z,30.92
2022-07-29T13:52:49.580Z,31.69
2022-07-29T13:55:17.592Z,31.50
2022-07-29T13:57:46.030Z,31.13
2022-07-29T14:00:14.879Z,32.00
2022-07-29T14:02:45.770Z,31.81
2022-07-29T14:05:13.874Z,31.97
2022-07-29T14:07:41.941Z,31.82
2022-07-29T14:10:10.740Z,31.55
2022-07-29T14:12:39.854Z,32.05
2022-07-29T14:15:08.433Z,31.46
2022-07-29T14:17:36.610Z,31.20
2022-07-29T14:20:06.141Z,30.59
2022-07-29T14:22:37.811Z,30.82
2022-07-29T14:25:14.591Z,30.58
2022-07-29T14:27:44.926Z,30.45
2022-07-29T14:30:13.700Z,30.86
2022-07-29T14:32:42.802Z,30.70
2022-07-29T14:35:10.982Z,30.89
2022-07-29T14:37:40.833Z,31.26
2022-07-29T14:40:11.596Z,31.09
2022-07-29T14:42:40.476Z,31.78
2022-07-29T14:45:10.472Z,31.77
2022-07-29T14:47:39.708Z,31.67
2022-07-29T14:50:08.807Z,31.59
2022-07-29T14:52:37.153Z,31.52
2022-07-29T14:55:16.426Z,31.94
2022-07-29T14:57:49.376Z,31.61
2022-07-29T15:00:18.227Z,30.95
2022-07-29T15:03:01.347Z,31.03
2022-07-29T15:05:32.368Z,30.41
2022-07-29T15:08:01.295Z,30.58
2022-07-29T15:10:29.681Z,30.48
2022-07-29T15:12:58.881Z,30.15
2022-07-29T15:15:27.274Z,30.19
2022-07-29T15:17:55.521Z,30.02
2022-07-29T15:20:26.452Z,29.41
2022-07-29T15:22:56.600Z,29.62
2022-07-29T15:25:26.498Z,29.63
2022-07-29T15:28:01.206Z,29.43
2022-07-29T15:30:33.133Z,29.34
2022-07-29T15:33:04.361Z,29.09
2022-07-29T15:35:33.097Z,28.93
2022-07-29T15:38:01.212Z,28.74
2022-07-29T15:40:29.788Z,28.59
2022-07-29T15:42:58.585Z,28.44
2022-07-29T15:45:26.799Z,28.52
2022-07-29T15:48:00.506Z,28.83
2022-07-29T15:50:28.597Z,29.01
2022-07-29T15:52:56.672Z,28.89
2022-07-29T15:55:24.915Z,29.03
2022-07-29T15:57:55.177Z,28.79
2022-07-29T16:00:26.675Z,28.75
2022-07-29T16:02:54.612Z,28.40
2022-07-29T16:05:23.405Z,28.18
2022-07-29T16:07:51.803Z,28.38
2022-07-29T16:10:19.956Z,28.04
2022-07-29T16:12:48.040Z,27.49
2022-07-29T16:15:16.685Z,28.24
2022-07-29T16:17:45.173Z,28.18
2022-07-29T16:20:13.884Z,28.62
2022-07-29T16:22:45.264Z,28.96
2022-07-29T16:25:13.386Z,29.07
2022-07-29T16:27:43.701Z,28.92
2022-07-29T16:30:12.652Z,29.42
2022-07-29T16:32:40.675Z,29.83
2022-07-29T16:35:10.087Z,30.09
2022-07-29T16:37:39.384Z,30.05
2022-07-29T16:40:11.752Z,29.71
2022-07-29T16:42:48.017Z,29.57
2022-07-29T16:45:18.064Z,29.79
2022-07-29T16:47:49.952Z,29.59
2022-07-29T16:50:18.717Z,29.94
2022-07-29T16:52:46.762Z,30.09
2022-07-29T16:55:14.971Z,29.80
2022-07-29T16:57:43.993Z,29.63
2022-07-29T17:00:13.357Z,30.04
2022-07-29T17:02:43.671Z,30.11
2022-07-29T17:05:12.880Z,30.00
2022-07-29T17:07:42.921Z,30.02
2022-07-29T17:10:11.569Z,29.89
2022-07-29T17:12:43.958Z,29.63
2022-07-29T17:15:13.670Z,29.71
2022-07-29T17:17:55.024Z,29.77
2022-07-29T17:20:27.020Z,29.73
2022-07-29T17:22:55.655Z,29.51
2022-07-29T17:25:24.652Z,29.00
2022-07-29T17:27:54.461Z,28.61
2022-07-29T17:30:26.186Z,28.10
2022-07-29T17:32:55.147Z,27.34
2022-07-29T17:35:42.059Z,26.80
2022-07-29T17:38:10.186Z,26.73
2022-07-29T17:40:38.518Z,26.41
2022-07-29T17:43:09.362Z,25.70
2022-07-29T17:45:49.044Z,26.12
2022-07-29T17:48:20.061Z,25.62
2022-07-29T17:50:49.638Z,25.29
2022-07-29T17:53:18.117Z,24.74
2022-07-29T17:55:47.760Z,24.46
2022-07-29T17:58:17.033Z,24.14
2022-07-29T18:00:45.872Z,24.23
2022-07-29T18:03:14.493Z,23.82
2022-07-29T18:05:45.787Z,23.67
2022-07-29T18:08:13.969Z,23.50
2022-07-29T18:10:42.222Z,23.45
2022-07-29T18:13:13.120Z,23.41
2022-07-29T18:15:43.346Z,23.23
2022-07-29T18:18:15.767Z,22.82
2022-07-29T18:20:44.188Z,22.96
2022-07-29T18:23:12.463Z,22.55
2022-07-29T18:25:40.925Z,22.70
2022-07-29T18:28:09.489Z,22.58
2022-07-29T18:30:38.152Z,22.51
2022-07-29T18:33:24.317Z,22.39
2022-07-29T18:36:06.097Z,22.03
2022-07-29T18:38:41.976Z,21.94
2022-07-29T18:41:10.276Z,21.83
2022-07-29T18:43:38.256Z,22.04
2022-07-29T18:46:07.113Z,21.84
2022-07-29T18:48:35.251Z,21.62
2022-07-29T18:51:03.477Z,21.76
2022-07-29T18:53:38.082Z,21.75
2022-07-29T18:56:06.168Z,21.51
2022-07-29T18:58:34.300Z,21.39
2022-07-29T19:01:02.749Z,21.33
2022-07-29T19:03:30.866Z,21.17
2022-07-29T19:05:59.149Z,21.43
2022-07-29T19:08:27.724Z,21.41
2022-07-29T19:10:59.668Z,21.38
2022-07-29T19:13:27.962Z,21.32
2022-07-29T19:15:56.338Z,21.26
2022-07-29T19:18:24.902Z,20.90
2022-07-29T19:20:54.072Z,20.86
2022-07-29T19:23:22.185Z,20.85
2022-07-29T19:25:53.882Z,20.85
2022-07-29T19:28:23.568Z,21.02
2022-07-29T19:30:53.767Z,21.07
2022-07-29T19:33:22.102Z,21.04
2022-07-29T19:35:54.749Z,21.05
2022-07-29T19:38:24.006Z,21.00
2022-07-29T19:40:52.603Z,21.01
2022-07-29T19:43:50.695Z,21.05
2022-07-29T19:46:10.520Z,21.08
2022-07-29T19:48:39.067Z,20.99
2022-07-29T19:51:07.134Z,20.73
2022-07-29T19:53:35.360Z,20.59
2022-07-29T19:56:03.631Z,20.91
2022-07-29T19:58:32.262Z,20.82
2022-07-29T20:01:01.047Z,20.54
2022-07-29T20:03:29.695Z,20.78
2022-07-29T20:05:58.347Z,20.69
2022-07-29T20:08:26.769Z,20.52
2022-07-29T20:10:56.074Z,20.53
2022-07-29T20:13:24.401Z,20.58
2022-07-29T20:15:52.660Z,20.56
2022-07-29T20:18:20.933Z,20.59
2022-07-29T20:20:49.935Z,20.45
2022-07-29T20:23:19.580Z,20.45
2022-07-29T20:25:47.701Z,20.02
2022-07-29T20:28:15.967Z,20.45
2022-07-29T20:30:44.495Z,20.14
2022-07-29T20:33:15.684Z,20.15
2022-07-29T20:35:43.894Z,19.98
2022-07-29T20:38:15.132Z,20.13
2022-07-29T20:40:47.028Z,20.37
2022-07-29T20:43:16.052Z,20.07
2022-07-29T20:45:44.344Z,20.27
2022-07-29T20:48:13.678Z,19.95
2022-07-29T20:50:43.081Z,19.98
2022-07-29T20:53:11.726Z,20.20
2022-07-29T20:55:39.761Z,19.81
2022-07-29T20:58:08.103Z,19.65
2022-07-29T21:00:36.403Z,19.78
2022-07-29T21:03:04.860Z,19.58
2022-07-29T21:05:33.167Z,19.99
2022-07-29T21:08:01.354Z,19.88
2022-07-29T21:10:29.663Z,19.87
2022-07-29T21:12:57.985Z,19.90
2022-07-29T21:15:27.730Z,19.84
2022-07-29T21:18:06.569Z,19.74
2022-07-29T21:20:34.933Z,19.75
2022-07-29T21:23:03.467Z,19.74
2022-07-29T21:25:31.538Z,19.73
2022-07-29T21:28:18.210Z,19.70
2022-07-29T21:30:46.389Z,19.65
2022-07-29T21:33:16.296Z,19.29
2022-07-29T21:36:10.206Z,19.62
2022-07-29T21:38:34.208Z,19.40
2022-07-29T21:41:02.427Z,19.57
2022-07-29T21:43:30.714Z,19.48
2022-07-29T21:46:01.036Z,19.30
2022-07-29T21:48:29.650Z,19.33
2022-07-29T21:50:57.840Z,19.02
2022-07-29T21:53:28.052Z,19.20
2022-07-29T21:55:56.142Z,18.97
2022-07-29T21:58:24.896Z,19.18
2022-07-29T22:00:54.123Z,19.17
2022-07-29T22:03:22.207Z,19.26
2022-07-29T22:05:50.348Z,19.09
2022-07-29T22:08:21.574Z,18.87
2022-07-29T22:10:49.539Z,19.15
2022-07-29T22:13:18.087Z,18.88
2022-07-29T22:15:47.241Z,19.11
2022-07-29T22:18:21.077Z,19.05
2022-07-29T22:20:50.547Z,18.81
2022-07-29T22:23:25.428Z,19.09
2022-07-29T22:25:54.039Z,19.06
2022-07-29T22:28:22.014Z,19.11
2022-07-29T22:30:50.174Z,19.13
2022-07-29T22:33:18.415Z,18.85
2022-07-29T22:35:48.391Z,18.89
2022-07-29T22:38:18.305Z,19.07
2022-07-29T22:40:48.697Z,18.86
2022-07-29T22:43:18.767Z,19.15
2022-07-29T22:45:47.042Z,19.11
2022-07-29T22:48:15.656Z,19.12
2022-07-29T22:50:43.831Z,19.15
2022-07-29T22:53:11.842Z,18.99
2022-07-29T22:55:40.168Z,19.08
2022-07-29T22:58:08.210Z,18.99
2022-07-29T23:00:36.304Z,18.82
2022-07-29T23:03:04.755Z,19.01
2022-07-29T23:05:32.926Z,18.95
2022-07-29T23:08:00.964Z,18.98
2022-07-29T23:10:30.688Z,18.71
2022-07-29T23:12:58.788Z,18.95
2022-07-29T23:15:26.823Z,18.94
2022-07-29T23:17:55.218Z,18.93
2022-07-29T23:20:23.251Z,18.95
2022-07-29T23:22:51.545Z,18.94
2022-07-29T23:25:20.010Z,18.92
2022-07-29T23:27:47.895Z,18.92
2022-07-29T23:30:16.043Z,18.95
2022-07-29T23:32:44.211Z,18.93
2022-07-29T23:35:12.210Z,18.62
2022-07-29T23:37:40.260Z,18.83
2022-07-29T23:40:13.998Z,18.79
2022-07-29T23:42:43.886Z,18.17
2022-07-29T23:45:13.943Z,18.66
2022-07-29T23:47:43.288Z,18.52
2022-07-29T23:50:12.793Z,18.22
2022-07-29T23:52:42.627Z,18.27
2022-07-29T23:55:37.667Z,18.15
2022-07-29T23:58:00.572Z,17.89
